Time;durP1;ratioP1;P1;durP2;ratioP2;P2;SDS_P1;SDS_P2;PMS_P1;PMS_P2;Temp;Humidity;BMP_temperature;BMP_pressure;BME280_temperature;BME280_humidity;BME280_pressure;Samples;Min_cycle;Max_cycle;Signal;HPM_P1;HPM_P2
2023/04/16 00:01:07;;;;;;;3.53;2.60;;;6.70;93.60;;;;;;5095115;28;20193;-71
2023/04/16 00:03:34;;;;;;;3.55;2.25;;;6.70;93.60;;;;;;5095338;28;20195;-71
2023/04/16 00:06:02;;;;;;;3.03;2.40;;;6.70;93.70;;;;;;5095529;28;20189;-69
2023/04/16 00:08:29;;;;;;;3.20;2.20;;;6.60;93.90;;;;;;5095607;28;20276;-69
2023/04/16 00:10:58;;;;;;;2.83;2.05;;;6.60;94.10;;;;;;5094931;28;20193;-69
2023/04/16 00:13:26;;;;;;;3.15;2.25;;;6.60;93.80;;;;;;5095400;28;20193;-69
2023/04/16 00:15:53;;;;;;;2.95;2.15;;;6.70;93.70;;;;;;5095066;28;20619;-69
2023/04/16 00:18:20;;;;;;;3.08;2.25;;;6.70;93.70;;;;;;5095396;28;20609;-69
2023/04/16 00:20:49;;;;;;;2.83;1.80;;;6.70;93.60;;;;;;5094399;28;20189;-69
2023/04/16 00:23:17;;;;;;;2.30;1.67;;;6.70;93.50;;;;;;5095077;28;20196;-70
2023/04/16 00:25:44;;;;;;;2.30;1.30;;;6.70;92.80;;;;;;5095517;28;20215;-69
2023/04/16 00:28:12;;;;;;;3.38;1.80;;;6.70;92.50;;;;;;5094976;28;20258;-69
2023/04/16 00:30:40;;;;;;;4.72;1.73;;;6.70;93.10;;;;;;5094933;28;20193;-69
2023/04/16 00:33:07;;;;;;;3.17;1.65;;;6.70;93.10;;;;;;5095408;28;20310;-69
2023/04/16 00:35:35;;;;;;;2.10;1.20;;;6.70;93.20;;;;;;5094795;28;20213;-69
2023/04/16 00:38:02;;;;;;;2.30;1.58;;;6.70;93.20;;;;;;5095002;28;20196;-69
2023/04/16 00:40:30;;;;;;;2.60;1.60;;;6.70;93.20;;;;;;5095064;28;20185;-69
2023/04/16 00:42:57;;;;;;;2.22;1.58;;;6.70;93.10;;;;;;5094475;28;20706;-69
2023/04/16 00:45:28;;;;;;;3.80;1.80;;;6.70;93.10;;;;;;5095040;28;20193;-69
2023/04/16 00:47:55;;;;;;;2.80;1.75;;;6.70;92.90;;;;;;5094671;28;20193;-69
2023/04/16 00:50:23;;;;;;;2.72;2.13;;;6.70;92.80;;;;;;5094507;28;20627;-69
2023/04/16 00:52:54;;;;;;;2.88;1.80;;;6.70;92.80;;;;;;5094178;28;20241;-70
2023/04/16 00:55:22;;;;;;;2.20;1.30;;;6.80;92.80;;;;;;5093979;28;20208;-69
2023/04/16 00:57:49;;;;;;;2.65;1.83;;;6.70;93.00;;;;;;5094517;28;20188;-69
2023/04/16 01:00:17;;;;;;;2.65;1.75;;;6.80;92.80;;;;;;5094045;28;20213;-69
2023/04/16 01:02:46;;;;;;;2.83;1.63;;;6.70;92.60;;;;;;5094639;28;20631;-69
2023/04/16 01:05:13;;;;;;;2.40;1.45;;;6.70;93.10;;;;;;5094222;28;20216;-69
2023/04/16 01:07:40;;;;;;;2.83;1.50;;;6.70;93.50;;;;;;5094548;28;20193;-69
2023/04/16 01:10:08;;;;;;;3.03;1.80;;;6.70;93.40;;;;;;5094269;28;20189;-69
2023/04/16 01:12:35;;;;;;;2.83;1.83;;;6.70;93.30;;;;;;5094682;28;20189;-69
2023/04/16 01:15:03;;;;;;;3.20;1.98;;;6.70;93.20;;;;;;5093703;28;20531;-70
2023/04/16 01:17:30;;;;;;;2.88;1.77;;;6.70;93.30;;;;;;5094239;28;20655;-69
2023/04/16 01:20:01;;;;;;;2.75;1.60;;;6.70;93.50;;;;;;5094164;28;20185;-69
2023/04/16 01:22:30;;;;;;;2.67;1.40;;;6.70;93.70;;;;;;5094221;28;20193;-70
2023/04/16 01:24:57;;;;;;;2.40;1.73;;;6.70;93.70;;;;;;5093824;28;20295;-69
2023/04/16 01:27:25;;;;;;;2.38;1.83;;;6.70;93.60;;;;;;5094033;28;20185;-70
2023/04/16 01:29:53;;;;;;;2.30;1.40;;;6.70;93.70;;;;;;5093640;28;20182;-70
2023/04/16 01:32:20;;;;;;;2.50;1.67;;;6.70;93.80;;;;;;5093465;28;20189;-69
2023/04/16 01:34:47;;;;;;;2.35;1.67;;;6.70;93.60;;;;;;5093514;28;20190;-70
2023/04/16 01:37:14;;;;;;;2.80;2.40;;;6.70;93.40;;;;;;5093996;28;20621;-70
2023/04/16 01:39:43;;;;;;;3.40;1.85;;;6.70;93.30;;;;;;5093420;28;20640;-70
2023/04/16 01:42:10;;;;;;;3.00;1.85;;;6.70;93.50;;;;;;5093945;28;20612;-69
2023/04/16 01:44:37;;;;;;;3.20;2.22;;;6.70;93.70;;;;;;5093596;28;20250;-69
2023/04/16 01:47:04;;;;;;;2.30;1.60;;;6.70;93.70;;;;;;5093265;28;20597;-70
2023/04/16 01:49:32;;;;;;;2.80;1.95;;;6.70;93.70;;;;;;5093461;28;20181;-70
2023/04/16 01:51:59;;;;;;;2.90;1.80;;;6.70;93.90;;;;;;5093671;28;20216;-69
2023/04/16 01:54:27;;;;;;;2.55;1.52;;;6.70;94.10;;;;;;5093398;28;20181;-69
2023/04/16 01:56:55;;;;;;;3.97;1.80;;;6.70;94.20;;;;;;5093518;28;20212;-69
2023/04/16 01:59:23;;;;;;;2.00;1.00;;;6.70;94.30;;;;;;5093222;28;20591;-69
2023/04/16 02:01:50;;;;;;;2.80;1.70;;;6.80;94.50;;;;;;5093594;28;20220;-69
2023/04/16 02:04:17;;;;;;;2.40;1.50;;;6.70;94.10;;;;;;5092199;28;20185;-69
2023/04/16 02:06:44;;;;;;;2.03;1.13;;;6.70;94.10;;;;;;5093444;28;20244;-70
2023/04/16 02:09:12;;;;;;;2.00;1.05;;;6.70;94.20;;;;;;5092577;28;20193;-69
2023/04/16 02:11:39;;;;;;;1.95;1.00;;;6.80;94.10;;;;;;5093152;28;20180;-69
2023/04/16 02:14:08;;;;;;;2.10;1.30;;;6.80;94.40;;;;;;5092632;28;20193;-69
2023/04/16 02:16:35;;;;;;;1.80;1.00;;;6.80;94.30;;;;;;5093206;28;20316;-69
2023/04/16 02:19:03;;;;;;;3.25;1.70;;;6.70;94.20;;;;;;5092692;28;20195;-69
2023/04/16 02:21:30;;;;;;;2.17;1.13;;;6.70;94.40;;;;;;5093386;28;20291;-69
2023/04/16 02:24:02;;;;;;;1.90;0.98;;;6.70;94.40;;;;;;5092801;28;20187;-69
2023/04/16 02:26:29;;;;;;;1.80;1.00;;;6.70;94.20;;;;;;5093352;28;20205;-69
2023/04/16 02:28:57;;;;;;;1.80;0.80;;;6.70;94.30;;;;;;5092565;28;20185;-69
2023/04/16 02:31:27;;;;;;;2.20;0.95;;;6.60;94.20;;;;;;5091984;28;20528;-69
2023/04/16 02:33:54;;;;;;;1.98;1.08;;;6.60;94.10;;;;;;5092094;28;20184;-70
2023/04/16 02:36:21;;;;;;;1.70;0.88;;;6.60;93.90;;;;;;5092519;28;20217;-69
2023/04/16 02:38:49;;;;;;;1.90;0.85;;;6.60;93.80;;;;;;5092642;28;20185;-69
2023/04/16 02:41:16;;;;;;;2.17;1.23;;;6.60;93.90;;;;;;5092285;28;20301;-69
2023/04/16 02:43:44;;;;;;;1.75;0.80;;;6.60;94.00;;;;;;5092793;28;20189;-69
2023/04/16 02:46:12;;;;;;;1.90;1.00;;;6.60;94.20;;;;;;5092313;28;20631;-69
2023/04/16 02:48:41;;;;;;;2.33;1.10;;;6.60;94.00;;;;;;5092724;28;20193;-69
2023/04/16 02:51:08;;;;;;;6.20;1.00;;;6.60;94.00;;;;;;5092257;28;20201;-69
2023/04/16 02:53:36;;;;;;;1.70;0.80;;;6.60;94.10;;;;;;5092842;28;20189;-69
2023/04/16 02:56:03;;;;;;;2.00;1.10;;;6.60;94.40;;;;;;5092027;28;20212;-69
2023/04/16 02:58:30;;;;;;;1.92;0.90;;;6.60;94.40;;;;;;5092573;28;20203;-69
2023/04/16 03:01:02;;;;;;;1.90;0.70;;;6.50;94.30;;;;;;5091980;28;20217;-70
2023/04/16 03:03:29;;;;;;;1.65;0.90;;;6.60;94.40;;;;;;5092362;28;20639;-71
2023/04/16 03:05:58;;;;;;;1.80;0.70;;;6.60;94.30;;;;;;5091892;28;20228;-69
2023/04/16 03:08:26;;;;;;;2.20;1.55;;;6.60;94.40;;;;;;5092509;28;20189;-69
2023/04/16 03:10:54;;;;;;;1.95;1.15;;;6.60;94.00;;;;;;5092186;28;20189;-69
2023/04/16 03:13:21;;;;;;;1.85;1.20;;;6.50;94.00;;;;;;5092488;28;20197;-69
2023/04/16 03:15:51;;;;;;;1.90;0.98;;;6.50;94.30;;;;;;5091680;28;20216;-71
2023/04/16 03:18:18;;;;;;;1.90;1.00;;;6.50;94.40;;;;;;5092266;28;20276;-69
2023/04/16 03:20:45;;;;;;;2.33;1.13;;;6.50;94.50;;;;;;5091779;28;20193;-69
2023/04/16 03:23:14;;;;;;;1.80;0.93;;;6.50;94.40;;;;;;5092490;28;20247;-69
2023/04/16 03:25:45;;;;;;;1.60;0.75;;;6.50;94.30;;;;;;5091798;28;20218;-69
2023/04/16 03:28:15;;;;;;;1.60;0.63;;;6.50;94.40;;;;;;5092301;28;20211;-69
2023/04/16 03:30:42;;;;;;;2.58;0.60;;;6.50;94.30;;;;;;5092175;28;20555;-69
2023/04/16 03:33:10;;;;;;;1.50;0.60;;;6.50;93.90;;;;;;5092413;28;20188;-69
2023/04/16 03:35:37;;;;;;;1.50;0.60;;;6.50;93.80;;;;;;5092193;28;20542;-69
2023/04/16 03:38:05;;;;;;;1.70;0.60;;;6.50;93.60;;;;;;5071875;28;20190;-69
2023/04/16 03:40:34;;;;;;;1.85;0.70;;;6.50;93.50;;;;;;5071881;28;20276;-70
2023/04/16 03:43:01;;;;;;;2.00;0.60;;;6.50;93.20;;;;;;5091784;28;20185;-69
2023/04/16 03:45:28;;;;;;;1.50;0.50;;;6.50;93.40;;;;;;5092298;28;20230;-69
2023/04/16 03:47:56;;;;;;;3.15;0.60;;;6.50;93.30;;;;;;5092020;28;20196;-69
2023/04/16 03:50:25;;;;;;;1.80;0.73;;;6.50;93.30;;;;;;5091176;28;20600;-69
2023/04/16 03:52:52;;;;;;;1.60;0.60;;;6.50;93.40;;;;;;5091061;28;20185;-69
2023/04/16 03:55:20;;;;;;;2.75;0.70;;;6.50;93.20;;;;;;5091755;28;20185;-69
2023/04/16 03:57:49;;;;;;;1.60;0.80;;;6.50;93.10;;;;;;5091521;28;20221;-69
2023/04/16 04:00:18;;;;;;;1.60;0.70;;;6.50;93.30;;;;;;5092167;28;20675;-69
2023/04/16 04:02:46;;;;;;;1.50;0.70;;;6.40;93.50;;;;;;5091851;28;20710;-69
2023/04/16 04:05:13;;;;;;;1.50;0.60;;;6.40;93.80;;;;;;5091940;28;20279;-69
2023/04/16 04:07:40;;;;;;;1.60;0.68;;;6.40;93.70;;;;;;5091785;28;20224;-69
2023/04/16 04:10:09;;;;;;;1.63;0.80;;;6.40;94.00;;;;;;5091988;28;20193;-69
2023/04/16 04:12:37;;;;;;;1.80;1.00;;;6.40;94.00;;;;;;5091728;28;20691;-69
2023/04/16 04:15:07;;;;;;;1.60;0.80;;;6.40;93.90;;;;;;5092000;28;20553;-69
2023/04/16 04:17:34;;;;;;;1.60;0.60;;;6.30;94.00;;;;;;5091489;28;20221;-69
2023/04/16 04:20:01;;;;;;;1.70;0.60;;;6.30;94.00;;;;;;5092148;28;20225;-69
2023/04/16 04:22:29;;;;;;;1.50;0.60;;;6.30;94.00;;;;;;5091836;28;20185;-69
2023/04/16 04:24:56;;;;;;;1.50;0.70;;;6.40;93.60;;;;;;5091321;28;20580;-69
2023/04/16 04:27:24;;;;;;;1.60;0.60;;;6.30;93.90;;;;;;5092029;28;20212;-69
2023/04/16 04:29:52;;;;;;;1.50;0.60;;;6.40;93.60;;;;;;5091313;28;20692;-69
2023/04/16 04:32:21;;;;;;;1.80;0.80;;;6.40;93.60;;;;;;5094038;28;20235;-69
2023/04/16 04:34:48;;;;;;;1.50;0.70;;;6.30;93.30;;;;;;5095355;28;20639;-69
2023/04/16 04:37:16;;;;;;;1.80;0.88;;;6.30;93.60;;;;;;5095224;28;20266;-69
2023/04/16 04:39:43;;;;;;;2.22;1.15;;;6.30;93.80;;;;;;5095326;28;20189;-70
2023/04/16 04:42:10;;;;;;;2.00;0.88;;;6.20;93.90;;;;;;5094604;28;20192;-69
2023/04/16 04:44:37;;;;;;;1.80;0.82;;;6.30;94.10;;;;;;5095439;28;20267;-69
2023/04/16 04:47:05;;;;;;;1.50;0.60;;;6.30;94.20;;;;;;5094815;28;20242;-69
2023/04/16 04:49:34;;;;;;;1.60;0.60;;;6.30;94.40;;;;;;5094721;28;20276;-69
2023/04/16 04:52:01;;;;;;;1.50;0.60;;;6.30;94.40;;;;;;5094929;28;20181;-69
2023/04/16 04:54:31;;;;;;;1.60;0.70;;;6.30;94.30;;;;;;5095214;28;20215;-69
2023/04/16 04:56:58;;;;;;;1.80;0.80;;;6.30;94.60;;;;;;5094563;28;20633;-70
2023/04/16 04:59:26;;;;;;;1.60;0.60;;;6.30;94.80;;;;;;5094953;28;20223;-69
2023/04/16 05:01:53;;;;;;;1.50;0.52;;;6.30;94.80;;;;;;5094488;28;20189;-69
2023/04/16 05:04:21;;;;;;;1.70;0.68;;;6.30;94.70;;;;;;5094598;28;20243;-69
2023/04/16 05:06:50;;;;;;;1.80;0.70;;;6.40;94.60;;;;;;5094502;28;20512;-69
2023/04/16 05:09:17;;;;;;;1.67;0.70;;;6.40;94.60;;;;;;5094639;28;20189;-69
2023/04/16 05:11:45;;;;;;;1.60;0.70;;;6.40;94.40;;;;;;5094411;28;20193;-69
2023/04/16 05:14:12;;;;;;;1.55;0.57;;;6.40;94.70;;;;;;5094722;28;20193;-69
2023/04/16 05:16:40;;;;;;;1.50;0.60;;;6.40;94.50;;;;;;5094413;28;20209;-69
2023/04/16 05:19:07;;;;;;;1.60;0.60;;;6.40;94.30;;;;;;5094272;28;20195;-69
2023/04/16 05:21:35;;;;;;;1.60;0.68;;;6.40;93.70;;;;;;5094191;28;20663;-69
2023/04/16 05:24:04;;;;;;;1.50;0.52;;;6.50;93.90;;;;;;5094319;28;20208;-69
2023/04/16 05:26:31;;;;;;;1.50;0.60;;;6.40;94.00;;;;;;5094066;28;20193;-69
2023/04/16 05:28:58;;;;;;;2.80;0.95;;;6.50;94.10;;;;;;5093949;28;20570;-69
2023/04/16 05:31:26;;;;;;;1.70;0.70;;;6.50;93.90;;;;;;5093942;28;20199;-69
2023/04/16 05:33:54;;;;;;;1.95;0.70;;;6.50;94.10;;;;;;5093551;28;20193;-69
2023/04/16 05:36:21;;;;;;;1.65;0.82;;;6.50;94.10;;;;;;5094147;28;20612;-69
2023/04/16 05:38:49;;;;;;;1.50;0.60;;;6.60;94.20;;;;;;5094202;28;20189;-69
2023/04/16 05:41:22;;;;;;;1.63;0.70;;;6.60;93.90;;;;;;5090465;28;20213;-69
2023/04/16 05:43:49;;;;;;;2.00;0.90;;;6.60;94.20;;;;;;5094125;28;20220;-69
2023/04/16 05:46:17;;;;;;;1.80;0.60;;;6.60;94.50;;;;;;5093814;28;20597;-69
2023/04/16 05:48:44;;;;;;;1.67;0.70;;;6.60;94.50;;;;;;5094046;28;20659;-69
2023/04/16 05:51:12;;;;;;;1.98;1.08;;;6.60;93.60;;;;;;5093338;28;20546;-69
2023/04/16 05:53:39;;;;;;;2.15;1.20;;;6.60;93.60;;;;;;5094155;28;20311;-69
2023/04/16 05:56:08;;;;;;;1.83;1.00;;;6.60;93.60;;;;;;5093584;28;20193;-69
2023/04/16 05:58:37;;;;;;;1.80;1.00;;;6.50;94.10;;;;;;5093470;28;20242;-69
2023/04/16 06:01:04;;;;;;;1.80;0.85;;;6.50;94.10;;;;;;5052960;28;20277;-70
2023/04/16 06:03:32;;;;;;;1.65;0.73;;;6.50;93.90;;;;;;5052846;28;20200;-69
2023/04/16 06:05:59;;;;;;;2.70;0.90;;;6.40;94.00;;;;;;5052465;28;20190;-70
2023/04/16 06:08:27;;;;;;;1.70;0.80;;;6.40;93.90;;;;;;5053073;28;20183;-69
2023/04/16 06:10:55;;;;;;;3.45;1.25;;;6.40;93.80;;;;;;5053423;28;20200;-69
2023/04/16 06:13:22;;;;;;;2.03;1.02;;;6.40;94.30;;;;;;5052246;28;20194;-69
2023/04/16 06:15:52;;;;;;;1.70;0.80;;;6.40;94.00;;;;;;5053233;28;20236;-69
2023/04/16 06:18:19;;;;;;;1.70;0.60;;;6.40;93.90;;;;;;5052458;28;20305;-70
2023/04/16 06:20:47;;;;;;;2.30;1.02;;;6.40;94.20;;;;;;5053034;28;20256;-69
2023/04/16 06:23:14;;;;;;;2.05;0.90;;;6.40;94.60;;;;;;5052929;28;20248;-70
2023/04/16 06:25:42;;;;;;;2.67;1.20;;;6.30;95.10;;;;;;5052828;28;20190;-69
2023/04/16 06:28:09;;;;;;;2.00;0.98;;;6.40;95.30;;;;;;5052777;28;20645;-69
2023/04/16 06:30:37;;;;;;;2.10;1.05;;;6.40;95.40;;;;;;5052986;28;20195;-69
2023/04/16 06:33:06;;;;;;;3.40;1.35;;;6.40;94.80;;;;;;5052324;28;20274;-69
2023/04/16 06:35:33;;;;;;;2.00;1.05;;;6.40;94.80;;;;;;5052518;28;20544;-69
2023/04/16 06:38:00;;;;;;;2.83;1.38;;;6.40;94.90;;;;;;5052821;28;20233;-69
2023/04/16 06:40:27;;;;;;;3.08;1.70;;;6.50;95.40;;;;;;5052692;28;20667;-69
2023/04/16 06:42:54;;;;;;;5.80;2.75;;;6.60;94.80;;;;;;5052764;28;20532;-70
2023/04/16 06:45:22;;;;;;;5.35;3.50;;;6.60;95.10;;;;;;5052441;28;20592;-69
2023/04/16 06:47:49;;;;;;;6.03;4.38;;;6.70;94.60;;;;;;5052347;28;20198;-69
2023/04/16 06:50:18;;;;;;;6.10;4.13;;;6.70;94.50;;;;;;5052331;28;20194;-69
2023/04/16 06:52:45;;;;;;;3.30;1.92;;;6.80;94.80;;;;;;5052156;28;20187;-70
2023/04/16 06:55:13;;;;;;;8.52;7.38;;;6.90;95.00;;;;;;5051071;28;20193;-70
2023/04/16 06:57:40;;;;;;;9.68;7.82;;;7.00;94.90;;;;;;5052647;28;20222;-69
2023/04/16 07:00:09;;;;;;;4.43;3.08;;;7.10;94.30;;;;;;5076455;28;20223;-69
2023/04/16 07:02:36;;;;;;;2.90;1.77;;;7.10;93.80;;;;;;5090754;28;20636;-69
2023/04/16 07:05:03;;;;;;;3.13;2.58;;;7.20;94.10;;;;;;5092669;28;20224;-69
2023/04/16 07:07:32;;;;;;;2.88;1.45;;;7.30;93.30;;;;;;5090300;28;20649;-69
2023/04/16 07:09:59;;;;;;;2.60;1.35;;;7.30;93.20;;;;;;5091344;28;20639;-69
2023/04/16 07:12:27;;;;;;;1.80;1.10;;;7.40;93.50;;;;;;5091672;28;20205;-69
2023/04/16 07:14:53;;;;;;;2.05;1.30;;;7.40;93.40;;;;;;5092182;28;20199;-69
2023/04/16 07:17:20;;;;;;;4.15;1.30;;;7.50;93.20;;;;;;5092365;28;20242;-69
2023/04/16 07:19:47;;;;;;;1.90;1.13;;;7.50;92.40;;;;;;5092405;28;20181;-69
2023/04/16 07:22:14;;;;;;;2.20;0.90;;;7.50;92.70;;;;;;5092642;28;20189;-69
2023/04/16 07:24:43;;;;;;;2.10;1.10;;;7.60;92.00;;;;;;5091590;28;20221;-70
2023/04/16 07:27:10;;;;;;;2.60;1.23;;;7.60;92.30;;;;;;5092135;28;20211;-69
2023/04/16 07:29:37;;;;;;;2.75;1.33;;;7.60;92.60;;;;;;5091014;28;20193;-70
2023/04/16 07:32:06;;;;;;;1.80;1.00;;;7.70;93.00;;;;;;5092306;28;20189;-69
2023/04/16 07:34:33;;;;;;;2.20;1.20;;;7.80;93.20;;;;;;5091950;28;20204;-70
2023/04/16 07:37:00;;;;;;;2.00;0.90;;;7.90;93.40;;;;;;5092962;28;20681;-70
2023/04/16 07:39:27;;;;;;;2.13;0.90;;;8.00;92.60;;;;;;5093164;28;20644;-70
2023/04/16 07:41:55;;;;;;;2.88;1.15;;;8.00;92.20;;;;;;5093181;28;20603;-72
2023/04/16 07:44:22;;;;;;;1.80;0.90;;;8.10;92.40;;;;;;5092455;28;20238;-70
2023/04/16 07:46:49;;;;;;;2.00;1.10;;;8.20;91.90;;;;;;5092774;28;20197;-70
2023/04/16 07:49:15;;;;;;;1.58;0.65;;;8.20;91.80;;;;;;5093070;28;20223;-70
2023/04/16 07:51:42;;;;;;;1.70;0.80;;;8.20;90.90;;;;;;5092675;28;20236;-71
2023/04/16 07:54:10;;;;;;;1.88;0.90;;;8.30;91.20;;;;;;5092958;28;20547;-70
2023/04/16 07:56:37;;;;;;;1.92;1.08;;;8.40;91.30;;;;;;5092922;28;20589;-69
2023/04/16 07:59:05;;;;;;;1.85;1.00;;;8.50;91.40;;;;;;5092537;28;20264;-69
2023/04/16 08:01:33;;;;;;;2.03;1.00;;;8.60;91.70;;;;;;5092990;28;20234;-70
2023/04/16 08:03:59;;;;;;;1.95;0.73;;;8.80;91.80;;;;;;5092442;28;20648;-69
2023/04/16 08:06:26;;;;;;;2.33;1.00;;;8.80;91.10;;;;;;5095797;28;20208;-69
2023/04/16 08:08:53;;;;;;;1.90;0.90;;;8.90;91.30;;;;;;5096664;28;20192;-69
2023/04/16 08:11:20;;;;;;;1.90;0.77;;;8.90;89.40;;;;;;5096529;28;20258;-70
2023/04/16 08:13:47;;;;;;;1.80;0.85;;;8.90;89.80;;;;;;5096313;28;20344;-70
2023/04/16 08:16:15;;;;;;;1.85;0.95;;;8.90;90.20;;;;;;5096200;28;20685;-70
2023/04/16 08:18:42;;;;;;;2.70;1.20;;;8.90;90.10;;;;;;5096257;28;20544;-70
2023/04/16 08:21:09;;;;;;;1.60;0.82;;;9.00;90.00;;;;;;5096409;28;20254;-70
2023/04/16 08:23:36;;;;;;;1.60;0.80;;;9.00;90.10;;;;;;5095948;28;20239;-69
2023/04/16 08:26:03;;;;;;;1.70;0.85;;;9.10;90.10;;;;;;5096411;28;20189;-69
2023/04/16 08:28:30;;;;;;;2.10;1.00;;;9.20;90.20;;;;;;5096197;28;20238;-70
2023/04/16 08:30:57;;;;;;;1.77;0.60;;;9.30;87.90;;;;;;5095881;28;20715;-70
2023/04/16 08:33:25;;;;;;;1.90;0.90;;;9.30;87.70;;;;;;5095625;28;20655;-70
2023/04/16 08:35:52;;;;;;;1.50;0.60;;;9.30;87.90;;;;;;5095733;28;20318;-70
2023/04/16 08:38:19;;;;;;;1.95;1.10;;;9.40;88.20;;;;;;5095585;28;20212;-69
2023/04/16 08:40:47;;;;;;;1.90;0.90;;;9.50;89.00;;;;;;5095289;28;20238;-70
2023/04/16 08:43:16;;;;;;;1.90;1.00;;;9.60;88.90;;;;;;5095665;28;20193;-70
2023/04/16 08:45:43;;;;;;;1.70;0.90;;;9.70;88.00;;;;;;5095754;28;20197;-70
2023/04/16 08:48:12;;;;;;;2.00;1.10;;;9.90;86.40;;;;;;5095713;28;20615;-69
2023/04/16 08:50:41;;;;;;;1.80;1.00;;;9.90;85.80;;;;;;5095572;28;20196;-70
2023/04/16 08:53:13;;;;;;;1.90;1.13;;;9.90;85.50;;;;;;5095350;28;20601;-70
2023/04/16 08:55:46;;;;;;;1.90;0.90;;;9.90;86.40;;;;;;5095766;28;20243;-70
2023/04/16 08:58:15;;;;;;;1.75;0.85;;;9.90;87.20;;;;;;5095275;28;20345;-70
2023/04/16 09:00:42;;;;;;;1.70;0.80;;;9.90;88.00;;;;;;5095352;28;20311;-70
2023/04/16 09:03:09;;;;;;;2.13;0.95;;;9.90;87.10;;;;;;5095450;28;20197;-70
2023/04/16 09:05:37;;;;;;;1.90;0.90;;;10.00;83.90;;;;;;5095205;28;20203;-70
2023/04/16 09:08:06;;;;;;;3.28;1.25;;;10.00;83.60;;;;;;5095389;28;20189;-69
2023/04/16 09:10:34;;;;;;;1.60;0.73;;;10.00;83.30;;;;;;5094903;28;20246;-70
2023/04/16 09:13:01;;;;;;;1.80;0.77;;;10.00;83.00;;;;;;5094547;28;20192;-70
2023/04/16 09:15:28;;;;;;;1.80;1.00;;;10.00;82.70;;;;;;5094541;28;20185;-70
2023/04/16 09:17:56;;;;;;;2.00;1.00;;;10.00;83.90;;;;;;5094000;28;20575;-69
2023/04/16 09:20:23;;;;;;;1.70;0.82;;;10.00;84.90;;;;;;5094394;28;20189;-70
2023/04/16 09:22:50;;;;;;;2.33;1.05;;;10.10;84.00;;;;;;5095075;28;20193;-70
2023/04/16 09:25:21;;;;;;;1.65;0.70;;;10.10;83.00;;;;;;5095035;28;20191;-71
2023/04/16 09:27:50;;;;;;;2.65;1.10;;;10.10;82.50;;;;;;5094911;28;20203;-70
2023/04/16 09:30:22;;;;;;;1.90;1.00;;;10.10;83.40;;;;;;5094776;28;20275;-70
2023/04/16 09:32:49;;;;;;;2.25;1.20;;;10.10;82.80;;;;;;5094765;28;20189;-70
2023/04/16 09:35:18;;;;;;;3.55;1.10;;;10.00;82.60;;;;;;5094677;28;20201;-70
2023/04/16 09:37:54;;;;;;;1.88;1.00;;;10.00;81.00;;;;;;5094913;28;20189;-70
2023/04/16 09:40:29;;;;;;;1.50;0.60;;;10.00;80.90;;;;;;5094195;28;20716;-70
2023/04/16 09:42:59;;;;;;;1.92;0.85;;;9.90;80.60;;;;;;5094570;28;20192;-70
2023/04/16 09:45:30;;;;;;;1.80;0.90;;;9.80;83.20;;;;;;5094617;28;20189;-70
2023/04/16 09:48:04;;;;;;;2.05;1.00;;;9.80;80.90;;;;;;5094559;28;20266;-69
2023/04/16 09:50:31;;;;;;;2.15;1.00;;;9.70;81.30;;;;;;5094351;28;20635;-70
2023/04/16 09:53:02;;;;;;;1.77;0.85;;;9.70;81.80;;;;;;5094268;28;20201;-70
2023/04/16 09:55:30;;;;;;;1.67;0.88;;;9.70;81.50;;;;;;5094059;28;20635;-70
2023/04/16 09:58:01;;;;;;;2.90;1.92;;;9.60;81.30;;;;;;5094187;28;20689;-70
2023/04/16 10:00:29;;;;;;;2.30;1.35;;;9.60;81.80;;;;;;5093989;28;20746;-70
2023/04/16 10:03:13;;;;;;;2.10;1.20;;;9.60;83.20;;;;;;5093870;28;20225;-70
2023/04/16 10:05:40;;;;;;;2.13;0.90;;;9.70;84.10;;;;;;5094076;28;20608;-70
2023/04/16 10:08:12;;;;;;;2.30;1.50;;;9.80;84.70;;;;;;5093963;28;20193;-70
2023/04/16 10:10:41;;;;;;;1.90;0.90;;;9.80;85.20;;;;;;5094001;28;20242;-70
2023/04/16 10:13:08;;;;;;;1.98;1.30;;;10.00;84.20;;;;;;5093796;28;20719;-70
2023/04/16 10:15:35;;;;;;;1.95;0.82;;;10.00;83.90;;;;;;5094035;28;20300;-69
2023/04/16 10:18:04;;;;;;;3.38;1.23;;;10.00;85.40;;;;;;5093671;28;20740;-70
2023/04/16 10:20:32;;;;;;;2.63;1.60;;;10.10;84.60;;;;;;5093779;28;20703;-70
2023/04/16 10:22:59;;;;;;;2.00;1.25;;;10.10;84.60;;;;;;5093852;28;20189;-70
2023/04/16 10:25:27;;;;;;;2.75;1.80;;;10.20;82.30;;;;;;5093661;28;20189;-70
2023/04/16 10:27:58;;;;;;;2.25;1.50;;;10.10;81.70;;;;;;5093245;28;20238;-70
2023/04/16 10:30:26;;;;;;;2.63;1.35;;;10.10;81.10;;;;;;5092514;28;20188;-70
2023/04/16 10:32:53;;;;;;;3.55;1.80;;;10.00;81.50;;;;;;5093591;28;20269;-70
2023/04/16 10:35:20;;;;;;;2.92;1.77;;;9.90;81.70;;;;;;5093369;28;20574;-70
2023/04/16 10:37:47;;;;;;;2.00;1.30;;;9.90;83.00;;;;;;5093500;28;20189;-69
2023/04/16 10:40:25;;;;;;;1.60;0.80;;;9.90;83.10;;;;;;5093351;28;20197;-70
2023/04/16 10:42:58;;;;;;;2.72;1.08;;;9.90;82.30;;;;;;5093276;28;20249;-70
2023/04/16 10:45:31;;;;;;;1.70;0.70;;;9.90;82.50;;;;;;5093345;28;20185;-70
2023/04/16 10:47:58;;;;;;;4.18;3.05;;;10.00;82.20;;;;;;5093273;28;20805;-70
2023/04/16 10:50:33;;;;;;;2.58;1.42;;;10.00;82.20;;;;;;5093172;28;20215;-70
2023/04/16 10:53:19;;;;;;;2.00;0.98;;;9.90;81.70;;;;;;5093273;28;20222;-69
2023/04/16 10:55:57;;;;;;;1.73;1.00;;;10.00;79.50;;;;;;5093218;28;20188;-70
2023/04/16 10:58:29;;;;;;;5.15;2.90;;;10.10;80.70;;;;;;5093099;28;20244;-70
2023/04/16 11:01:01;;;;;;;5.30;3.78;;;10.10;81.10;;;;;;5092821;28;20225;-70
2023/04/16 11:03:31;;;;;;;2.10;1.17;;;10.10;81.50;;;;;;5092984;28;20276;-70
2023/04/16 11:06:11;;;;;;;4.13;2.53;;;10.10;80.90;;;;;;5093022;28;20280;-70
2023/04/16 11:08:39;;;;;;;2.15;1.15;;;10.10;80.70;;;;;;5093019;28;20199;-70
2023/04/16 11:11:06;;;;;;;1.90;0.90;;;10.10;81.30;;;;;;5093067;28;20196;-70
2023/04/16 11:13:36;;;;;;;1.60;0.80;;;10.10;82.20;;;;;;5092952;28;20189;-70
2023/04/16 11:16:03;;;;;;;1.60;0.60;;;10.10;82.40;;;;;;5093017;28;20204;-70
2023/04/16 11:18:30;;;;;;;1.85;0.70;;;10.20;80.90;;;;;;5092868;28;20262;-70
2023/04/16 11:20:58;;;;;;;1.75;0.80;;;10.20;80.30;;;;;;5092782;28;20196;-70
2023/04/16 11:23:25;;;;;;;1.80;0.90;;;10.10;79.40;;;;;;5092827;28;20635;-70
2023/04/16 11:25:56;;;;;;;1.88;1.10;;;10.00;80.70;;;;;;5092854;28;20648;-71
2023/04/16 11:28:34;;;;;;;1.90;1.00;;;10.00;82.20;;;;;;5092827;28;20197;-70
2023/04/16 11:31:11;;;;;;;2.17;1.13;;;9.90;83.40;;;;;;5092532;28;20188;-70
2023/04/16 11:33:39;;;;;;;1.67;0.90;;;10.00;82.50;;;;;;5092567;28;20184;-70
2023/04/16 11:36:06;;;;;;;1.75;0.90;;;10.00;82.00;;;;;;5092847;28;20223;-70
2023/04/16 11:38:35;;;;;;;2.00;0.90;;;10.00;82.00;;;;;;5092555;28;20259;-71
2023/04/16 11:41:02;;;;;;;2.10;1.20;;;10.10;82.50;;;;;;5095214;28;20652;-70
2023/04/16 11:43:28;;;;;;;2.00;1.00;;;10.10;82.20;;;;;;5096562;28;20192;-70
2023/04/16 11:46:12;;;;;;;2.03;1.15;;;10.10;81.80;;;;;;5096876;28;20528;-70
2023/04/16 11:48:49;;;;;;;2.00;1.00;;;10.10;81.80;;;;;;5096782;28;20197;-70
2023/04/16 11:51:17;;;;;;;2.08;1.10;;;10.10;80.90;;;;;;5096695;28;20635;-70
2023/04/16 11:53:48;;;;;;;2.17;0.80;;;10.00;81.80;;;;;;5096259;28;20284;-70
2023/04/16 11:56:16;;;;;;;1.67;0.75;;;10.00;81.20;;;;;;5096672;28;20189;-71
2023/04/16 11:58:43;;;;;;;1.83;0.80;;;10.00;80.70;;;;;;5095859;28;20304;-71
2023/04/16 12:01:12;;;;;;;1.85;0.70;;;10.00;79.90;;;;;;5096509;28;20279;-70
2023/04/16 12:03:42;;;;;;;2.55;1.13;;;10.00;80.80;;;;;;5096399;28;20204;-70
2023/04/16 12:06:10;;;;;;;2.65;1.00;;;10.00;80.60;;;;;;5096529;28;20224;-69
2023/04/16 12:08:37;;;;;;;1.58;0.77;;;9.90;82.10;;;;;;5096185;28;20197;-70
2023/04/16 12:11:04;;;;;;;1.80;0.90;;;9.90;81.80;;;;;;5096358;28;20662;-70
2023/04/16 12:13:38;;;;;;;4.45;2.80;;;9.90;81.30;;;;;;5095781;28;20258;-70
2023/04/16 12:16:19;;;;;;;2.05;1.00;;;9.80;81.70;;;;;;5096341;28;20189;-69
2023/04/16 12:19:03;;;;;;;1.67;0.70;;;9.80;82.60;;;;;;5095936;28;20212;-70
2023/04/16 12:21:43;;;;;;;1.80;0.90;;;9.80;82.80;;;;;;5095870;28;20193;-69
2023/04/16 12:24:12;;;;;;;1.50;0.75;;;9.80;83.30;;;;;;5096262;28;20221;-70
2023/04/16 12:26:41;;;;;;;2.20;1.20;;;9.80;83.70;;;;;;5096190;28;20336;-70
2023/04/16 12:29:20;;;;;;;2.13;0.80;;;9.80;85.00;;;;;;5096176;28;20192;-69
2023/04/16 12:31:50;;;;;;;1.60;0.70;;;9.80;83.70;;;;;;5095904;28;20220;-71
2023/04/16 12:34:17;;;;;;;1.80;0.75;;;9.80;84.60;;;;;;5095777;28;20189;-70
2023/04/16 12:36:46;;;;;;;1.90;0.93;;;9.80;83.30;;;;;;5095702;28;20230;-70
2023/04/16 12:39:14;;;;;;;1.70;0.80;;;9.80;84.10;;;;;;5095293;28;20217;-70
2023/04/16 12:41:43;;;;;;;1.75;0.90;;;9.80;83.80;;;;;;5095830;28;20227;-70
2023/04/16 12:44:12;;;;;;;3.15;1.00;;;9.80;83.40;;;;;;5095918;28;20272;-70
2023/04/16 12:46:40;;;;;;;2.30;0.90;;;9.80;84.50;;;;;;5095804;28;20279;-70
2023/04/16 12:49:10;;;;;;;2.88;0.90;;;9.90;84.20;;;;;;5095603;28;20274;-70
2023/04/16 12:51:38;;;;;;;1.60;0.90;;;9.90;84.30;;;;;;5094342;28;20313;-69
2023/04/16 12:54:07;;;;;;;1.98;1.20;;;9.80;82.80;;;;;;5095120;28;20240;-70
2023/04/16 12:56:35;;;;;;;3.20;0.90;;;9.90;83.00;;;;;;5095300;28;20193;-70
2023/04/16 12:59:02;;;;;;;3.10;0.88;;;9.90;82.50;;;;;;5095013;28;20233;-69
2023/04/16 13:01:29;;;;;;;10.90;6.43;;;9.80;82.50;;;;;;5095264;28;20189;-70